This is the latest recevied weather packets stored in our database for station/object OK3MS-5. If no packets are shown the sender has not sent any weather packets the latest 1 day(s).
| Time | Temp. | Humidity | Pressure | Rain* | Wind** | Luminosity | Snow |
|---|---|---|---|---|---|---|---|
| 1778005204 | 17.78° C | 64% | 1001.5 hPa | 0 mm | 0 m/s | 2 W/m² | - |
| 1778004903 | 17.78° C | 64% | 1001.4 hPa | 0 mm | 0.89 m/s, 19° | 4 W/m² | - |
| 1778004609 | 17.78° C | 63% | 1001.4 hPa | 0 mm | 0 m/s | 5 W/m² | - |
| 1778004302 | 17.78° C | 63% | 1001.4 hPa | 0 mm | 0.45 m/s, 19° | 8 W/m² | - |
| 1778004020 | 18.33° C | 63% | 1001.5 hPa | 0 mm | 0.89 m/s, 19° | 10 W/m² | - |
| 1778003703 | 18.33° C | 62% | 1001.4 hPa | 0 mm | 0.45 m/s, 20° | 12 W/m² | - |
| 1778003407 | 18.33° C | 62% | 1001.5 hPa | 0 mm | 0 m/s | 13 W/m² | - |
| 1778003103 | 18.33° C | 62% | 1001.5 hPa | 0 mm | 0 m/s | 14 W/m² | - |
| 1778002804 | 18.89° C | 60% | 1001.4 hPa | 0 mm | 0.45 m/s, 20° | 15 W/m² | - |
| 1778002503 | 18.89° C | 60% | 1001.5 hPa | 0 mm | 0 m/s | 18 W/m² | - |
| 1778002203 | 18.89° C | 60% | 1001.5 hPa | 0 mm | 0.89 m/s, 7° | 21 W/m² | - |
| 1778001904 | 18.89° C | 60% | 1001.4 hPa | 0 mm | 0 m/s | 27 W/m² | - |
| 1778001602 | 18.89° C | 60% | 1001.3 hPa | 0 mm | 0 m/s | 32 W/m² | - |
| 1778001304 | 19.44° C | 58% | 1001.4 hPa | 0 mm | 0 m/s | 35 W/m² | - |
| 1778001004 | 19.44° C | 57% | 1001.3 hPa | 0 mm | 0.45 m/s, 7° | 37 W/m² | - |
| 1778000704 | 20° C | 56% | 1001.4 hPa | 0 mm | 0.45 m/s, 7° | 41 W/m² | - |
| 1778000403 | 20° C | 56% | 1001.4 hPa | 0 mm | 0 m/s | 50 W/m² | - |
| 1778000102 | 20° C | 56% | 1001.3 hPa | 0 mm | 0.45 m/s, 7° | 59 W/m² | - |
| 1777999803 | 20° C | 56% | 1001.5 hPa | 0 mm | 0.45 m/s, 6° | 63 W/m² | - |
| 1777999504 | 20° C | 58% | 1001.6 hPa | 0 mm | 0.45 m/s, 7° | 85 W/m² | - |
| 1777999204 | 20° C | 57% | 1001.6 hPa | 0 mm | 1.34 m/s, 6° | 91 W/m² | - |
| 1777998902 | 20.56° C | 56% | 1001.7 hPa | 0 mm | 0.89 m/s, 6° | 77 W/m² | - |
| 1777998603 | 20.56° C | 55% | 1001.7 hPa | 0 mm | 0.45 m/s, 0° | 71 W/m² | - |
| 1777998304 | 20.56° C | 54% | 1001.7 hPa | 0 mm | 2.68 m/s, 350° | 93 W/m² | - |
| 1777998004 | 20.56° C | 55% | 1001.8 hPa | 0 mm | 1.34 m/s, 349° | 143 W/m² | - |
* Rain latest hour (hover to see other rain measurements)
** Current wind speed in m/s (hover to see current wind gust speed)